»·PEaware :: AAL2609 CYYZ-KDFW

AAL2609 :: CYYZ-KDFW

FLIGHT INFORMATION

Flight Status: Arrived
Operator:
American Airlines
More flights by this operator :: More flights under this callsign
Pilot: Anonymous 14085 (14085)
Aircraft: AIRBUS A320
(A320)
More flights by this aircraft type
Origin: CYYZ Toronto/Pearson Intl
Canada
Destination: KDFW Dallas-Ft Worth Intl
United States
More flights between these airports :: More routes between these airports
Route: MIXUT4 GNTRY CRL FWA TTH FAM FSM KOMMA RRNET SEEVR4
File this flight plan on PilotEdge
Remarks: PBN / A1B1C1D1O1S1 DOF / 171125 REG / N320SB EET / KZOB0020 KZAU0047 KZID0103 KZKC0117 KZME0144 KZFW0214 OPR / AAL PER / C RMK / TCAS SIMBRIEF
Altitude:
(Current/Filed)
34,000ft
Speed:
(Current/Filed)
447kts
Departed: 25-Nov-17 12:43 PM
Arrived: 25-Nov-17 03:32 PM
Distance/Time
Traveled:
1041nm/2:49
Distance/Time
To Go:
Arrived

Flight Plot

Page will automatically refresh every two minutes.

Flight plan parsing failed; only flown route is shown


Map Options




Map Legend


Flown Route
Filed Route
Departure Airport
Arrival Airport
Navaid (VOR, NDB)
Fix

Horizontal Profiles

Position Reports

Time Latitude Longitude Heading Altitude Ground
Speed
25-Nov-17 11:41 43.683485 -79.616988 148 551ft 0kts
25-Nov-17 11:42 43.685753 -79.623712 145 551ft 0kts
25-Nov-17 11:43 43.685753 -79.623712 145 551ft 0kts
25-Nov-17 11:44 43.685753 -79.623712 145 551ft 0kts
25-Nov-17 11:45 43.685753 -79.623712 145 551ft 0kts
25-Nov-17 11:46 43.685753 -79.623712 145 551ft 0kts
25-Nov-17 11:47 43.685753 -79.623712 145 551ft 0kts
25-Nov-17 11:48 43.685753 -79.623712 145 550ft 0kts
25-Nov-17 11:49 43.685753 -79.623712 145 550ft 0kts
25-Nov-17 11:50 43.685753 -79.623712 145 550ft 0kts
25-Nov-17 11:51 43.685753 -79.623712 145 550ft 0kts
25-Nov-17 11:52 43.685753 -79.623712 145 550ft 0kts
25-Nov-17 11:53 43.685753 -79.623712 145 550ft 0kts
25-Nov-17 11:54 43.685753 -79.623712 145 550ft 0kts
25-Nov-17 11:55 43.685753 -79.623712 145 550ft 0kts
25-Nov-17 11:56 43.685753 -79.623712 145 550ft 0kts
25-Nov-17 11:57 43.685753 -79.623712 145 550ft 0kts
25-Nov-17 11:58 43.685753 -79.623712 145 550ft 0kts
25-Nov-17 11:59 43.685753 -79.623712 145 550ft 0kts
25-Nov-17 12:00 43.685753 -79.623712 145 550ft 0kts
25-Nov-17 12:01 43.685753 -79.623712 145 550ft 0kts
25-Nov-17 12:02 43.685753 -79.623712 145 550ft 0kts
25-Nov-17 12:03 43.685753 -79.623712 145 550ft 0kts
25-Nov-17 12:04 43.685753 -79.623712 145 550ft 0kts
25-Nov-17 12:05 43.685753 -79.623712 145 550ft 0kts
25-Nov-17 12:06 43.685753 -79.623712 145 550ft 0kts
25-Nov-17 12:07 43.685753 -79.623712 145 550ft 0kts
25-Nov-17 12:08 43.685753 -79.623712 145 550ft 0kts
25-Nov-17 12:09 43.685753 -79.623712 145 550ft 0kts
25-Nov-17 12:10 43.686147 -79.624080 164 551ft 2kts
25-Nov-17 12:11 43.686503 -79.623895 235 551ft 1kts
25-Nov-17 12:12 43.686514 -79.623874 233 550ft 0kts
25-Nov-17 12:13 43.686514 -79.623874 233 550ft 0kts
25-Nov-17 12:14 43.686514 -79.623874 233 550ft 0kts
25-Nov-17 12:15 43.686514 -79.623874 233 550ft 0kts
25-Nov-17 12:16 43.686514 -79.623874 233 550ft 0kts
25-Nov-17 12:17 43.686514 -79.623874 233 550ft 0kts
25-Nov-17 12:18 43.686514 -79.623874 233 550ft 0kts
25-Nov-17 12:19 43.686514 -79.623874 233 550ft 0kts
25-Nov-17 12:20 43.686514 -79.623874 233 550ft 0kts
25-Nov-17 12:21 43.686514 -79.623874 233 550ft 0kts
25-Nov-17 12:22 43.686514 -79.623874 233 550ft 0kts
25-Nov-17 12:23 43.686514 -79.623874 233 550ft 0kts
25-Nov-17 12:24 43.686514 -79.623874 233 550ft 0kts
25-Nov-17 12:25 43.686514 -79.623874 233 550ft 0kts
25-Nov-17 12:26 43.686514 -79.623874 233 550ft 0kts
25-Nov-17 12:27 43.686514 -79.623874 233 551ft 0kts
25-Nov-17 12:28 43.686514 -79.623874 233 551ft 0kts
25-Nov-17 12:29 43.686514 -79.623874 233 551ft 0kts
25-Nov-17 12:30 43.686514 -79.623874 233 551ft 0kts
25-Nov-17 12:31 43.686514 -79.623874 233 551ft 0kts
25-Nov-17 12:32 43.686053 -79.624790 235 550ft 11kts
25-Nov-17 12:33 43.683193 -79.626880 138 550ft 14kts
25-Nov-17 12:34 43.680231 -79.623078 135 550ft 19kts
25-Nov-17 12:35 43.676441 -79.618823 137 551ft 17kts
25-Nov-17 12:36 43.672781 -79.614048 136 541ft 21kts
25-Nov-17 12:37 43.671856 -79.613552 228 538ft 1kts
25-Nov-17 12:38 43.671251 -79.615128 313 540ft 0kts
25-Nov-17 12:39 43.671251 -79.615128 313 540ft 0kts
25-Nov-17 12:40 43.671251 -79.615128 313 540ft 0kts
25-Nov-17 12:41 43.671251 -79.615128 313 540ft 0kts
25-Nov-17 12:42 43.671251 -79.615128 313 540ft 0kts
25-Nov-17 12:43 43.671251 -79.615128 313 540ft 0kts
25-Nov-17 12:44 43.671251 -79.615128 313 540ft 0kts
25-Nov-17 12:45 43.671251 -79.615128 313 540ft 0kts
25-Nov-17 12:46 43.671251 -79.615128 313 540ft 0kts
25-Nov-17 12:47 43.671251 -79.615128 313 540ft 0kts
25-Nov-17 12:48 43.676447 -79.621935 315 551ft 122kts
25-Nov-17 12:49 43.696154 -79.668287 286 2805ft 159kts
25-Nov-17 12:50 43.709933 -79.741357 279 4500ft 234kts
25-Nov-17 12:51 43.663699 -79.800502 180 6967ft 285kts
25-Nov-17 12:52 43.582874 -79.796973 183 9708ft 300kts
25-Nov-17 12:53 43.513441 -79.852246 224 11521ft 320kts
25-Nov-17 12:54 43.442204 -79.938983 224 12734ft 360kts
25-Nov-17 12:55 43.366691 -80.030300 224 14636ft 367kts
25-Nov-17 12:56 43.290491 -80.123548 227 16528ft 369kts
25-Nov-17 12:57 43.217039 -80.221773 227 18244ft 373kts
25-Nov-17 12:58 43.157532 -80.336608 240 19760ft 374kts
25-Nov-17 12:59 43.104280 -80.458845 240 21199ft 378kts
25-Nov-17 13:00 43.049990 -80.582903 240 22494ft 383kts
25-Nov-17 13:01 42.995704 -80.706430 239 23681ft 387kts
25-Nov-17 13:02 42.940177 -80.832243 239 24902ft 390kts
25-Nov-17 13:03 42.884164 -80.958596 242 26240ft 387kts
25-Nov-17 13:04 42.835197 -81.068643 244 27013ft 393kts
25-Nov-17 13:05 42.777399 -81.197989 244 27689ft 403kts
25-Nov-17 13:06 42.718927 -81.328278 244 28475ft 407kts
25-Nov-17 13:07 42.659949 -81.459101 244 29464ft 405kts
25-Nov-17 13:08 42.601404 -81.588404 244 30395ft 402kts
25-Nov-17 13:09 42.544427 -81.713706 243 31244ft 402kts
25-Nov-17 13:10 42.494449 -81.846782 254 32095ft 393kts
25-Nov-17 13:11 42.456475 -81.988011 254 32430ft 405kts
25-Nov-17 13:12 42.418019 -82.130096 256 33203ft 403kts
25-Nov-17 13:13 42.379008 -82.273444 254 33898ft 402kts
25-Nov-17 13:14 42.340301 -82.414892 254 33939ft 402kts
25-Nov-17 13:15 42.301419 -82.556145 254 33939ft 402kts
25-Nov-17 13:16 42.262506 -82.696709 253 33942ft 403kts
25-Nov-17 13:17 42.223122 -82.838165 253 33975ft 404kts
25-Nov-17 13:18 42.183558 -82.979475 253 34041ft 404kts
25-Nov-17 13:19 42.143672 -83.121153 254 33906ft 409kts
25-Nov-17 13:20 42.102883 -83.265197 254 33984ft 415kts
25-Nov-17 13:21 42.061513 -83.410454 254 34042ft 417kts
25-Nov-17 13:22 41.996959 -83.542661 237 34036ft 434kts
25-Nov-17 13:23 41.921592 -83.667536 237 34030ft 431kts
25-Nov-17 13:24 41.846675 -83.791253 237 33990ft 430kts
25-Nov-17 13:25 41.772091 -83.913906 237 34002ft 429kts
25-Nov-17 13:26 41.696946 -84.036978 237 34002ft 429kts
25-Nov-17 13:27 41.621570 -84.159924 237 34011ft 429kts
25-Nov-17 13:28 41.546214 -84.282337 237 34015ft 429kts
25-Nov-17 13:29 41.470580 -84.404707 237 34019ft 429kts
25-Nov-17 13:30 41.394810 -84.526798 237 34024ft 429kts
25-Nov-17 13:31 41.318644 -84.649037 237 34054ft 429kts
25-Nov-17 13:32 41.242586 -84.770620 236 34042ft 432kts
25-Nov-17 13:33 41.166173 -84.892262 236 34112ft 432kts
25-Nov-17 13:34 41.089281 -85.014183 236 34094ft 431kts
25-Nov-17 13:35 41.012594 -85.135294 236 34077ft 430kts
25-Nov-17 13:36 40.933665 -85.253020 234 34068ft 431kts
25-Nov-17 13:37 40.859817 -85.358340 234 34062ft 431kts
25-Nov-17 13:38 40.778858 -85.473376 234 34087ft 431kts
25-Nov-17 13:39 40.697445 -85.588610 234 34093ft 431kts
25-Nov-17 13:40 40.635616 -85.675827 233 34099ft 432kts
25-Nov-17 13:41 40.560844 -85.780961 233 34114ft 433kts
25-Nov-17 13:42 40.478807 -85.895882 233 34125ft 433kts
25-Nov-17 13:43 40.396527 -86.010709 233 34114ft 433kts
25-Nov-17 13:44 40.314296 -86.125031 233 34076ft 432kts
25-Nov-17 13:45 40.232002 -86.239006 233 34072ft 432kts
25-Nov-17 13:46 40.149826 -86.352387 233 34108ft 432kts
25-Nov-17 13:47 40.067770 -86.465177 233 34131ft 432kts
25-Nov-17 13:48 39.985483 -86.577864 233 34116ft 432kts
25-Nov-17 13:49 39.903011 -86.690385 232 34101ft 432kts
25-Nov-17 13:50 39.827794 -86.792638 232 34107ft 433kts
25-Nov-17 13:51 39.744793 -86.905075 232 34109ft 433kts
25-Nov-17 13:52 39.661993 -87.016830 231 34118ft 432kts
25-Nov-17 13:53 39.578586 -87.128981 232 34135ft 432kts
25-Nov-17 13:54 39.495977 -87.240124 234 34157ft 430kts
25-Nov-17 13:55 39.423567 -87.361533 238 34161ft 426kts
25-Nov-17 13:56 39.352224 -87.483770 238 34156ft 426kts
25-Nov-17 13:57 39.280916 -87.605494 238 34155ft 426kts
25-Nov-17 13:58 39.209502 -87.726953 238 34402ft 433kts
25-Nov-17 13:59 39.136964 -87.849821 238 34917ft 434kts
25-Nov-17 14:00 39.064076 -87.972823 238 35417ft 433kts
25-Nov-17 14:01 38.991225 -88.095304 236 35880ft 432kts
25-Nov-17 14:02 38.918526 -88.217050 237 36205ft 432kts
25-Nov-17 14:03 38.845663 -88.338610 238 36223ft 431kts
25-Nov-17 14:04 38.772874 -88.459596 237 36222ft 432kts
25-Nov-17 14:05 38.699584 -88.580957 237 36223ft 432kts
25-Nov-17 14:06 38.627999 -88.699056 237 36225ft 432kts
25-Nov-17 14:07 38.554625 -88.819661 237 36230ft 432kts
25-Nov-17 14:08 38.480799 -88.940552 237 36228ft 432kts
25-Nov-17 14:09 38.407120 -89.060759 237 36222ft 432kts
25-Nov-17 14:10 38.333383 -89.180605 237 36247ft 432kts
25-Nov-17 14:11 38.259300 -89.300599 237 36247ft 432kts
25-Nov-17 14:12 38.185365 -89.419900 237 36259ft 431kts
25-Nov-17 14:13 38.111187 -89.539146 237 36273ft 432kts
25-Nov-17 14:14 38.036833 -89.658242 236 36276ft 432kts
25-Nov-17 14:15 37.962560 -89.776778 236 36281ft 433kts
25-Nov-17 14:16 37.887975 -89.895378 236 36286ft 433kts
25-Nov-17 14:17 37.812989 -90.014183 236 36278ft 432kts
25-Nov-17 14:18 37.738367 -90.131987 236 36273ft 432kts
25-Nov-17 14:19 37.664470 -90.251066 240 36270ft 429kts
25-Nov-17 14:20 37.598086 -90.375324 241 36271ft 428kts
25-Nov-17 14:21 37.542647 -90.478772 241 36276ft 428kts
25-Nov-17 14:22 37.464674 -90.623738 241 36278ft 428kts
25-Nov-17 14:23 37.398079 -90.747057 240 36280ft 429kts
25-Nov-17 14:24 37.342210 -90.850159 240 36286ft 430kts
25-Nov-17 14:25 37.263516 -90.994847 240 36285ft 430kts
25-Nov-17 14:26 37.207310 -91.097806 240 36283ft 430kts
25-Nov-17 14:27 37.140146 -91.220425 241 36263ft 429kts
25-Nov-17 14:28 37.072637 -91.343226 241 36272ft 429kts
25-Nov-17 14:29 37.004895 -91.465998 241 36273ft 429kts
25-Nov-17 14:30 36.937049 -91.588515 241 36275ft 429kts
25-Nov-17 14:31 36.870523 -91.708249 240 36223ft 434kts
25-Nov-17 14:32 36.801319 -91.832300 240 36273ft 439kts
25-Nov-17 14:33 36.731448 -91.957095 240 36314ft 441kts
25-Nov-17 14:34 36.661158 -92.082182 240 36310ft 441kts
25-Nov-17 14:35 36.590920 -92.206717 240 36294ft 441kts
25-Nov-17 14:36 36.520620 -92.330913 240 36252ft 441kts
25-Nov-17 14:37 36.449877 -92.455435 240 36247ft 441kts
25-Nov-17 14:38 36.379167 -92.579448 240 36246ft 441kts
25-Nov-17 14:39 36.309768 -92.700725 240 36274ft 442kts
25-Nov-17 14:40 36.238901 -92.824073 240 36271ft 432kts
25-Nov-17 14:41 36.171169 -92.941625 240 36283ft 424kts
25-Nov-17 14:42 36.101885 -93.061467 240 36595ft 432kts
25-Nov-17 14:43 36.032037 -93.181806 240 37147ft 432kts
25-Nov-17 14:44 35.961822 -93.302372 240 37589ft 434kts
25-Nov-17 14:45 35.892429 -93.421109 240 37994ft 434kts
25-Nov-17 14:46 35.822358 -93.540602 240 38267ft 435kts
25-Nov-17 14:47 35.752202 -93.659820 239 38277ft 433kts
25-Nov-17 14:48 35.681772 -93.779110 239 38277ft 435kts
25-Nov-17 14:49 35.610687 -93.899088 239 38261ft 436kts
25-Nov-17 14:50 35.539737 -94.018409 239 38243ft 435kts
25-Nov-17 14:51 35.468285 -94.138176 239 38250ft 436kts
25-Nov-17 14:52 35.396491 -94.257600 237 38249ft 438kts
25-Nov-17 14:53 35.306644 -94.360871 228 38251ft 446kts
25-Nov-17 14:54 35.213937 -94.461765 228 38220ft 448kts
25-Nov-17 14:55 35.121700 -94.561851 228 38248ft 448kts
25-Nov-17 14:56 35.032578 -94.658190 228 38244ft 425kts
25-Nov-17 14:57 34.944765 -94.752020 228 37216ft 423kts
25-Nov-17 14:58 34.857431 -94.844708 228 35917ft 417kts
25-Nov-17 14:59 34.770710 -94.934773 228 34575ft 408kts
25-Nov-17 15:00 34.684879 -95.022106 228 33222ft 400kts
25-Nov-17 15:01 34.600718 -95.107608 228 31865ft 390kts
25-Nov-17 15:02 34.518902 -95.190532 228 30493ft 380kts
25-Nov-17 15:03 34.438927 -95.271390 228 29241ft 372kts
25-Nov-17 15:04 34.360769 -95.350202 228 28050ft 365kts
25-Nov-17 15:05 34.284706 -95.426650 228 26864ft 347kts
25-Nov-17 15:06 34.211369 -95.500281 227 25662ft 341kts
25-Nov-17 15:07 34.139159 -95.572585 227 24461ft 335kts
25-Nov-17 15:08 34.068487 -95.643180 227 23243ft 328kts
25-Nov-17 15:09 33.999350 -95.712097 226 22059ft 325kts
25-Nov-17 15:10 33.930331 -95.780730 226 20834ft 320kts
25-Nov-17 15:11 33.883268 -95.827447 225 19972ft 317kts
25-Nov-17 15:12 33.836020 -95.874279 225 19099ft 313kts
25-Nov-17 15:13 33.769442 -95.940154 224 17935ft 308kts
25-Nov-17 15:14 33.703902 -96.004876 224 17109ft 305kts
25-Nov-17 15:15 33.638856 -96.068975 224 16322ft 301kts
25-Nov-17 15:16 33.571879 -96.134916 224 15914ft 325kts
25-Nov-17 15:17 33.502478 -96.202966 224 15846ft 324kts
25-Nov-17 15:18 33.434408 -96.274292 233 14203ft 324kts
25-Nov-17 15:19 33.378366 -96.351597 233 12598ft 305kts
25-Nov-17 15:20 33.325513 -96.428043 250 11218ft 290kts
25-Nov-17 15:21 33.300054 -96.517391 255 9856ft 281kts
25-Nov-17 15:22 33.285290 -96.604641 270 8863ft 261kts
25-Nov-17 15:23 33.281394 -96.689393 267 7727ft 256kts
25-Nov-17 15:24 33.277457 -96.773649 267 6611ft 252kts
25-Nov-17 15:25 33.270586 -96.856396 240 6025ft 260kts
25-Nov-17 15:26 33.208686 -96.869403 164 6028ft 256kts
25-Nov-17 15:27 33.141691 -96.883499 194 6030ft 259kts
25-Nov-17 15:28 33.072902 -96.905885 194 6031ft 259kts
25-Nov-17 15:29 33.003941 -96.928279 194 6031ft 259kts
25-Nov-17 15:30 32.934963 -96.950637 194 5129ft 263kts
25-Nov-17 15:31 32.866217 -96.967866 184 3835ft 264kts
25-Nov-17 15:32 32.794022 -96.970259 178 2751ft 255kts
25-Nov-17 15:33 32.749315 -97.012196 282 2237ft 227kts
25-Nov-17 15:34 32.791488 -97.029318 24 2029ft 167kts
25-Nov-17 15:35 32.830624 -97.012651 9 1431ft 141kts
25-Nov-17 15:36 32.869712 -97.009993 1 776ft 141kts
25-Nov-17 15:37 32.893853 -97.011805 284 615ft 36kts
25-Nov-17 15:38 32.893889 -97.018973 270 615ft 0kts
25-Nov-17 15:39 32.893889 -97.018973 270 615ft 0kts
25-Nov-17 15:40 32.893889 -97.018973 270 615ft 0kts
25-Nov-17 15:41 32.893889 -97.018973 270 615ft 0kts
25-Nov-17 15:42 32.893930 -97.027490 269 615ft 45kts
25-Nov-17 15:43 32.896480 -97.031929 0 615ft 25kts
25-Nov-17 15:44 32.905581 -97.031881 0 615ft 37kts
25-Nov-17 15:45 32.909027 -97.035378 270 615ft 27kts
25-Nov-17 15:46 32.909052 -97.045906 270 615ft 23kts
25-Nov-17 15:47 32.903833 -97.047629 180 615ft 32kts
25-Nov-17 15:48 32.896400 -97.047655 167 615ft 19kts
25-Nov-17 15:49 32.895809 -97.045707 88 615ft 0kts
25-Nov-17 15:50 32.895809 -97.045707 88 615ft 0kts
25-Nov-17 15:51 32.895809 -97.045707 88 615ft 0kts

Navigation Log

Ident Type
Flight plan parsing failed, navigation log unavailable